Dayton, OH (45418)

6:28 AM EST on December 22, 2014 (GMT -0500)
South Dayton Suburbs | Change Station
CLOSE
Current Station
Personal Weather Station
Location: Moraine, OH
Elevation: 751 ft
Nearby Weather Stations

Elev 751 ft 39.69 °N, 84.21 °W | Updated 1 second ago

Overcast
Overcast
31.6 °F
Feels Like 32 °F
N
2.0
Wind Variable Wind from WSW
Gusts 2.0 mph

Today
High -- | Low -- °F
--% Chance of Precip.
Yesterday
High -- | Low -- °F
Precip. -- in
7:55 AM 5:16 PM
New Moon, 0% visible
Pressure 30.04 in
Visibility 9.0 miles
Clouds Overcast 4300 ft
Windchill 32 °F
Dew Point 26 °F
Humidity 78%
Rainfall 0.00 in
Snow Depth Not available.
UV 0 out of 12
Pollen .10 out of 12
Air Quality Not available.
Flu Activity Not available.
METAR KMGY 221053Z AUTO 10006KT 9SM OVC043 M01/M03 A3002 RMK AO2 SLP173 T10061033

More Conditions Fewer Conditions

Pressure 30.04 in
Visibility 9.0 miles
Clouds Overcast 4300 ft
Windchill 32 °F
Dew Point 26 °F
Humidity 78%
Rainfall 0.00 in
Snow Depth Not available.
UV 0 out of 12
Pollen .10 out of 12
Air Quality Not available.
Flu Activity Not available.
METAR KMGY 221053Z AUTO 10006KT 9SM OVC043 M01/M03 A3002 RMK AO2 SLP173 T10061033

More Conditions Fewer Conditions

10-Day Weather Forecast

Almanac

Astronomy

Dec. 22, 2014 Rise Set
Actual Time
Civil Twilight
Nautical Twilight
Astronomical Twilight
Moon
Length of Visible Light
Length of Day
Tomorrow will be .
, % of the Moon is Illuminated

Today's Extremes

State Highs State Lows

Community

WunderPhotos

Upload Photos

1,779,587 photos uploaded!

WunderBlogs® & News

Nearby

Air Quality

  Air Quality AQ Index Pollutant
Not available.

Snow Depth

Station Depth Elevation

Earthquake Activity

City Distance Mag. Time & Date
Minimum magnitude displayed is 2.5.

Coastal Water Temperatures

Place Temperature

Nearby Weather Stations